Time;durP1;ratioP1;P1;durP2;ratioP2;P2;SDS_P1;SDS_P2;PMS_P1;PMS_P2;Temp;Humidity;BMP_temperature;BMP_pressure;BME280_temperature;BME280_humidity;BME280_pressure;Samples;Min_cycle;Max_cycle;Signal;HPM_P1;HPM_P2
2021/01/17 00:00:28;;;;;;;30.67;24.30;;;-1.30;99.90;;;;;;6064371;23;20897;-76
2021/01/17 00:02:54;;;;;;;28.03;24.13;;;-1.30;99.90;;;;;;6064692;23;20423;-75
2021/01/17 00:05:22;;;;;;;25.67;22.87;;;-1.30;99.90;;;;;;6066263;23;20387;-76
2021/01/17 00:07:50;;;;;;;26.67;23.87;;;-1.30;99.90;;;;;;6064777;23;20421;-76
2021/01/17 00:10:20;;;;;;;27.77;23.90;;;-1.30;99.90;;;;;;6064396;23;20411;-76
2021/01/17 00:12:47;;;;;;;27.80;24.33;;;-1.30;99.90;;;;;;6064418;23;20449;-76
2021/01/17 00:15:15;;;;;;;29.43;24.37;;;-1.30;99.90;;;;;;6066218;23;21010;-76
2021/01/17 00:17:42;;;;;;;28.70;24.33;;;-1.30;99.90;;;;;;6064566;23;20855;-76
2021/01/17 00:20:10;;;;;;;27.10;24.17;;;-1.30;99.90;;;;;;6064840;23;20488;-75
2021/01/17 00:22:37;;;;;;;30.50;25.37;;;-1.40;99.90;;;;;;6066237;23;20501;-76
2021/01/17 00:25:06;;;;;;;30.47;24.27;;;-1.50;99.90;;;;;;6067951;23;20458;-76
2021/01/17 00:27:32;;;;;;;28.87;24.30;;;-1.40;99.90;;;;;;6066255;23;20422;-76
2021/01/17 00:29:58;;;;;;;32.93;26.10;;;-1.30;99.90;;;;;;6067682;23;20391;-76
2021/01/17 00:32:25;;;;;;;32.03;25.50;;;-1.40;99.90;;;;;;6067842;23;20500;-76
2021/01/17 00:34:51;;;;;;;30.37;25.47;;;-1.30;99.90;;;;;;6067864;23;20427;-76
2021/01/17 00:37:18;;;;;;;27.17;24.30;;;-1.40;99.90;;;;;;6067870;23;20462;-76
2021/01/17 00:39:44;;;;;;;33.63;25.20;;;-1.40;99.90;;;;;;6065876;23;20419;-76
2021/01/17 00:42:12;;;;;;;31.73;25.27;;;-1.40;99.90;;;;;;6067707;23;20474;-76
2021/01/17 00:44:39;;;;;;;28.73;24.50;;;-1.50;99.90;;;;;;6066163;23;20423;-76
2021/01/17 00:47:05;;;;;;;28.40;24.63;;;-1.50;99.90;;;;;;6066168;23;20415;-76
2021/01/17 00:49:32;;;;;;;28.40;23.60;;;-1.40;99.90;;;;;;6065831;23;20475;-76
2021/01/17 00:51:59;;;;;;;28.63;25.60;;;-1.50;99.90;;;;;;6065956;23;20498;-76
2021/01/17 00:54:25;;;;;;;33.27;25.63;;;-1.50;99.90;;;;;;6065972;23;20447;-76
2021/01/17 00:56:52;;;;;;;33.73;26.73;;;-1.40;99.90;;;;;;6066056;23;20441;-76
2021/01/17 00:59:21;;;;;;;32.07;25.20;;;-1.40;99.90;;;;;;6066156;23;20421;-75
2021/01/17 01:01:48;;;;;;;27.93;24.93;;;-1.40;99.90;;;;;;6067543;23;20451;-75
2021/01/17 01:04:16;;;;;;;27.63;24.77;;;-1.40;99.90;;;;;;6065962;23;20418;-76
2021/01/17 01:06:43;;;;;;;28.60;25.50;;;-1.40;99.90;;;;;;6067532;23;20395;-76
2021/01/17 01:09:11;;;;;;;27.60;24.73;;;-1.40;99.90;;;;;;6067557;23;20399;-76
2021/01/17 01:11:38;;;;;;;29.60;25.63;;;-1.40;99.90;;;;;;6066387;23;20439;-76
2021/01/17 01:14:05;;;;;;;31.37;26.00;;;-1.40;99.90;;;;;;6067675;23;20435;-76
2021/01/17 01:16:32;;;;;;;29.93;26.03;;;-1.40;99.90;;;;;;6065985;23;20419;-76
2021/01/17 01:18:59;;;;;;;29.47;24.40;;;-1.50;99.90;;;;;;6065677;23;20429;-76
2021/01/17 01:21:26;;;;;;;30.30;25.67;;;-1.50;99.90;;;;;;6067439;23;20423;-76
2021/01/17 01:23:52;;;;;;;27.57;24.20;;;-1.50;99.90;;;;;;6066584;23;20423;-77
2021/01/17 01:26:21;;;;;;;29.10;24.60;;;-1.40;99.90;;;;;;6066268;23;20426;-76
2021/01/17 01:28:47;;;;;;;27.47;24.47;;;-1.40;99.90;;;;;;6065575;23;20426;-76
2021/01/17 01:31:17;;;;;;;28.77;23.70;;;-1.40;99.90;;;;;;6067124;23;20411;-76
2021/01/17 01:33:44;;;;;;;31.87;25.73;;;-1.40;99.90;;;;;;6065659;23;20439;-76
2021/01/17 01:36:17;;;;;;;31.50;26.20;;;-1.40;99.90;;;;;;6067058;23;20395;-76
2021/01/17 01:38:43;;;;;;;30.97;26.10;;;-1.40;99.90;;;;;;6065506;23;20406;-76
2021/01/17 01:41:09;;;;;;;31.77;26.47;;;-1.50;99.90;;;;;;6065629;23;20443;-76
2021/01/17 01:43:36;;;;;;;27.23;23.87;;;-1.50;99.90;;;;;;6067227;23;20387;-76
2021/01/17 01:46:03;;;;;;;30.57;24.17;;;-1.50;99.90;;;;;;6065584;23;20970;-76
2021/01/17 01:48:32;;;;;;;27.37;24.37;;;-1.50;99.90;;;;;;6066742;23;20391;-76
2021/01/17 01:51:01;;;;;;;27.13;23.80;;;-1.50;99.90;;;;;;6065640;23;20529;-76
2021/01/17 01:53:28;;;;;;;27.47;24.53;;;-1.50;99.90;;;;;;6067179;23;20438;-76
2021/01/17 01:55:55;;;;;;;26.70;23.80;;;-1.50;99.90;;;;;;6065609;23;20479;-75
2021/01/17 01:58:23;;;;;;;28.03;24.77;;;-1.50;99.90;;;;;;6065138;23;20769;-76
2021/01/17 02:00:50;;;;;;;26.00;23.20;;;-1.60;99.90;;;;;;6065543;23;20778;-76
2021/01/17 02:03:16;;;;;;;27.07;24.27;;;-1.60;99.90;;;;;;6066975;23;20401;-76
2021/01/17 02:05:43;;;;;;;26.93;23.83;;;-1.60;99.90;;;;;;6065384;23;20486;-76
2021/01/17 02:08:30;;;;;;;26.50;23.33;;;-1.60;99.90;;;;;;6066907;23;20777;-76
2021/01/17 02:11:02;;;;;;;28.30;24.97;;;-1.60;99.90;;;;;;6065778;23;20442;-76
2021/01/17 02:13:36;;;;;;;27.07;23.53;;;-1.60;99.90;;;;;;6067343;23;20483;-76
2021/01/17 02:16:06;;;;;;;30.43;23.87;;;-1.60;99.90;;;;;;6065685;23;20411;-77
2021/01/17 02:18:35;;;;;;;27.13;23.73;;;-1.50;99.90;;;;;;6065169;23;20423;-76
2021/01/17 02:21:04;;;;;;;28.20;25.30;;;-1.40;99.90;;;;;;6066810;23;20423;-76
2021/01/17 02:23:40;;;;;;;28.03;23.97;;;-1.40;99.90;;;;;;6067011;23;20398;-76
2021/01/17 02:26:07;;;;;;;28.60;25.50;;;-1.40;99.90;;;;;;6065264;23;20407;-75
2021/01/17 02:28:34;;;;;;;29.40;24.40;;;-1.40;99.90;;;;;;6064988;23;20941;-76
2021/01/17 02:31:02;;;;;;;29.33;24.83;;;-1.40;99.90;;;;;;6065316;23;20494;-76
2021/01/17 02:33:31;;;;;;;30.07;26.83;;;-1.40;99.90;;;;;;6066719;23;20431;-76
2021/01/17 02:36:05;;;;;;;30.20;26.33;;;-1.40;99.90;;;;;;6067015;23;20534;-76
2021/01/17 02:38:45;;;;;;;30.73;24.77;;;-1.50;99.90;;;;;;6066302;23;20384;-76
2021/01/17 02:41:18;;;;;;;28.23;23.90;;;-1.40;99.90;;;;;;6067454;23;20977;-76
2021/01/17 02:43:46;;;;;;;29.17;23.83;;;-1.40;99.90;;;;;;6064915;23;20412;-76
2021/01/17 02:46:13;;;;;;;26.17;23.40;;;-1.40;99.90;;;;;;6064979;23;20422;-76
2021/01/17 02:48:39;;;;;;;29.10;25.20;;;-1.30;99.90;;;;;;6064786;23;20433;-76
2021/01/17 02:51:06;;;;;;;28.03;24.73;;;-1.30;99.90;;;;;;6064782;23;20510;-76
2021/01/17 02:53:39;;;;;;;28.73;24.93;;;-1.30;99.90;;;;;;6065055;23;20443;-76
2021/01/17 02:56:11;;;;;;;28.53;25.47;;;-1.30;99.90;;;;;;6066744;23;20535;-76
2021/01/17 02:58:42;;;;;;;29.03;25.33;;;-1.30;99.90;;;;;;6066347;23;20468;-76
2021/01/17 03:01:11;;;;;;;31.47;25.17;;;-1.20;99.90;;;;;;6066557;23;20490;-76
2021/01/17 03:03:41;;;;;;;27.67;24.70;;;-1.20;99.90;;;;;;6066502;23;20470;-76
2021/01/17 03:06:10;;;;;;;30.80;25.53;;;-1.20;99.90;;;;;;6065213;23;20462;-76
2021/01/17 03:08:37;;;;;;;30.53;25.83;;;-1.20;99.90;;;;;;6064797;23;20423;-76
2021/01/17 03:11:04;;;;;;;31.23;27.13;;;-1.20;99.90;;;;;;6066460;23;20466;-76
2021/01/17 03:13:32;;;;;;;34.73;27.73;;;-1.20;99.90;;;;;;6064861;23;20439;-75
2021/01/17 03:16:00;;;;;;;32.17;26.97;;;-1.10;99.90;;;;;;6064944;23;20414;-76
2021/01/17 03:18:26;;;;;;;32.97;27.53;;;-1.20;99.90;;;;;;6064592;23;20419;-76
2021/01/17 03:20:53;;;;;;;33.20;27.20;;;-1.30;99.90;;;;;;6064759;23;21017;-76
2021/01/17 03:23:19;;;;;;;32.33;26.50;;;-1.20;99.90;;;;;;6066153;23;20383;-76
2021/01/17 03:25:45;;;;;;;32.60;26.17;;;-1.30;99.90;;;;;;6064960;23;20422;-76
2021/01/17 03:28:12;;;;;;;33.43;26.83;;;-1.30;99.90;;;;;;6066076;23;20395;-75
2021/01/17 03:30:38;;;;;;;32.93;26.80;;;-1.30;99.90;;;;;;6066494;23;20388;-77
2021/01/17 03:33:05;;;;;;;31.60;26.00;;;-1.30;99.90;;;;;;6066309;23;20910;-76
2021/01/17 03:35:32;;;;;;;30.60;26.13;;;-1.30;99.90;;;;;;6064929;23;20451;-76
2021/01/17 03:37:58;;;;;;;34.13;26.80;;;-1.40;99.90;;;;;;6064958;23;20975;-75
2021/01/17 03:40:25;;;;;;;29.27;24.60;;;-1.40;99.90;;;;;;6064456;23;20466;-76
2021/01/17 03:42:52;;;;;;;33.03;26.17;;;-1.40;99.90;;;;;;6066434;23;20402;-76
2021/01/17 03:45:18;;;;;;;31.47;25.70;;;-1.30;99.90;;;;;;6066441;23;20807;-76
2021/01/17 03:47:44;;;;;;;29.63;25.40;;;-1.30;99.90;;;;;;6064938;23;20458;-76
2021/01/17 03:50:12;;;;;;;32.37;28.10;;;-1.40;99.90;;;;;;6066516;23;20391;-77
2021/01/17 03:52:39;;;;;;;31.43;25.23;;;-1.30;99.90;;;;;;6067004;23;20470;-76
2021/01/17 03:55:06;;;;;;;34.50;27.07;;;-1.30;99.90;;;;;;6065438;23;20980;-76
2021/01/17 03:57:33;;;;;;;31.83;26.73;;;-1.30;99.90;;;;;;6060421;23;20932;-78
2021/01/17 03:59:59;;;;;;;31.97;26.77;;;-1.30;99.90;;;;;;6068476;23;20399;-76
2021/01/17 04:02:25;;;;;;;32.87;27.47;;;-1.30;99.90;;;;;;6067402;23;20439;-76
2021/01/17 04:04:52;;;;;;;31.53;26.63;;;-1.30;99.90;;;;;;6065147;23;20450;-76
2021/01/17 04:07:19;;;;;;;32.33;27.10;;;-1.30;99.90;;;;;;6060356;23;20425;-75
2021/01/17 04:09:45;;;;;;;32.93;26.50;;;-1.20;99.90;;;;;;6066184;23;20488;-76
2021/01/17 04:12:11;;;;;;;32.33;27.20;;;-1.20;99.90;;;;;;6066639;23;20458;-76
2021/01/17 04:14:38;;;;;;;32.53;27.13;;;-1.10;99.90;;;;;;6066743;23;20779;-80
2021/01/17 04:17:04;;;;;;;29.97;26.57;;;-1.20;99.90;;;;;;6067501;23;20406;-76
2021/01/17 04:19:31;;;;;;;35.27;27.50;;;-1.10;99.90;;;;;;6064819;23;20486;-75
2021/01/17 04:21:57;;;;;;;32.10;27.57;;;-1.10;99.90;;;;;;6065724;23;20486;-77
2021/01/17 04:24:24;;;;;;;35.40;28.23;;;-1.10;99.90;;;;;;6067853;23;20391;-76
2021/01/17 04:26:57;;;;;;;33.90;26.93;;;-1.10;99.90;;;;;;6065999;23;20457;-76
2021/01/17 04:29:23;;;;;;;33.03;26.33;;;-1.10;99.90;;;;;;6065529;23;20417;-76
2021/01/17 04:31:50;;;;;;;32.87;27.07;;;-1.20;99.90;;;;;;6067577;23;20423;-76
2021/01/17 04:34:16;;;;;;;32.07;26.13;;;-1.20;99.90;;;;;;6067330;23;20434;-77
2021/01/17 04:36:46;;;;;;;33.10;26.60;;;-1.20;99.90;;;;;;6065957;23;20481;-76
2021/01/17 04:39:12;;;;;;;32.70;26.30;;;-1.20;99.90;;;;;;6067190;23;20394;-76
2021/01/17 04:41:42;;;;;;;30.03;26.40;;;-1.10;99.90;;;;;;6067321;23;20411;-76
2021/01/17 04:44:10;;;;;;;33.60;26.57;;;-1.10;99.90;;;;;;6067203;23;20455;-76
2021/01/17 04:46:42;;;;;;;33.17;27.77;;;-1.00;99.90;;;;;;6067226;23;20391;-76
2021/01/17 04:49:09;;;;;;;30.40;27.10;;;-1.00;99.90;;;;;;6064916;23;20515;-76
2021/01/17 04:51:36;;;;;;;34.50;27.83;;;-1.00;99.90;;;;;;6065707;23;20978;-76
2021/01/17 04:54:04;;;;;;;32.43;27.37;;;-0.90;99.90;;;;;;6067064;23;20518;-76
2021/01/17 04:56:32;;;;;;;33.33;27.00;;;-0.90;99.90;;;;;;6066910;23;20871;-76
2021/01/17 04:59:09;;;;;;;29.93;26.40;;;-0.90;99.90;;;;;;6065249;23;20423;-76
2021/01/17 05:01:51;;;;;;;31.10;27.77;;;-0.80;99.90;;;;;;6065598;23;20441;-76
2021/01/17 05:04:43;;;;;;;32.30;27.30;;;-0.90;99.90;;;;;;6065648;23;20805;-76
2021/01/17 05:07:15;;;;;;;35.23;27.23;;;-0.90;99.90;;;;;;6068143;23;21041;-76
2021/01/17 05:09:50;;;;;;;33.33;27.67;;;-0.90;99.90;;;;;;6067277;23;20487;-76
2021/01/17 05:12:20;;;;;;;30.17;26.77;;;-1.00;99.90;;;;;;6067457;23;20411;-76
2021/01/17 05:14:55;;;;;;;31.23;26.93;;;-0.90;99.90;;;;;;6065698;23;20449;-76
2021/01/17 05:17:22;;;;;;;35.40;27.43;;;-0.90;99.90;;;;;;6065622;23;20407;-76
2021/01/17 05:19:49;;;;;;;30.83;27.23;;;-0.90;99.90;;;;;;6067208;23;20396;-76
2021/01/17 05:22:15;;;;;;;31.73;26.60;;;-0.90;99.90;;;;;;6067834;23;20447;-76
2021/01/17 05:24:45;;;;;;;34.00;27.60;;;-0.80;99.90;;;;;;6065811;23;20414;-76
2021/01/17 05:27:11;;;;;;;33.93;27.53;;;-0.90;99.90;;;;;;6065618;23;20767;-76
2021/01/17 05:29:38;;;;;;;35.50;26.90;;;-0.90;99.90;;;;;;6065495;23;20426;-75
2021/01/17 05:32:06;;;;;;;34.97;28.53;;;-0.90;99.90;;;;;;6066811;23;20423;-75
2021/01/17 05:34:33;;;;;;;31.33;27.53;;;-0.90;99.90;;;;;;6067092;23;20435;-75
2021/01/17 05:37:04;;;;;;;32.63;26.47;;;-0.80;99.90;;;;;;6067179;23;20391;-76
2021/01/17 05:39:31;;;;;;;31.27;27.53;;;-0.80;99.90;;;;;;6066708;23;20789;-75
2021/01/17 05:42:07;;;;;;;33.47;27.33;;;-0.80;99.90;;;;;;6067073;23;20442;-75
2021/01/17 05:44:33;;;;;;;33.27;28.93;;;-0.80;99.90;;;;;;6065223;23;20423;-75
2021/01/17 05:47:06;;;;;;;33.00;27.27;;;-0.80;99.90;;;;;;6067175;23;20398;-75
2021/01/17 05:49:33;;;;;;;35.63;27.63;;;-0.80;99.90;;;;;;6065487;23;20423;-76
2021/01/17 05:52:14;;;;;;;34.77;29.83;;;-0.80;99.90;;;;;;6066196;23;20442;-77
2021/01/17 05:54:41;;;;;;;34.07;28.00;;;-0.80;99.90;;;;;;6066970;23;20438;-76
2021/01/17 05:57:14;;;;;;;30.57;27.10;;;-0.80;99.90;;;;;;6066691;23;20917;-75
2021/01/17 05:59:40;;;;;;;30.17;26.80;;;-0.70;99.90;;;;;;6066392;23;20451;-76
2021/01/17 06:02:13;;;;;;;32.47;26.87;;;-0.70;99.90;;;;;;6066935;23;20937;-75
2021/01/17 06:04:41;;;;;;;32.60;26.73;;;-0.70;99.90;;;;;;6065788;23;20460;-76
2021/01/17 06:07:08;;;;;;;31.70;26.70;;;-0.70;99.90;;;;;;6066886;23;20716;-75
2021/01/17 06:09:37;;;;;;;31.27;27.37;;;-0.60;99.90;;;;;;6066264;23;20424;-76
2021/01/17 06:12:04;;;;;;;29.37;26.10;;;-0.60;99.90;;;;;;6067084;23;20419;-76
2021/01/17 06:14:31;;;;;;;34.50;26.63;;;-0.50;99.90;;;;;;6066698;23;20443;-76
2021/01/17 06:16:58;;;;;;;29.60;25.70;;;-0.60;99.90;;;;;;6067301;23;20403;-76
2021/01/17 06:19:32;;;;;;;28.80;25.57;;;-0.60;99.90;;;;;;6066562;23;20486;-75
2021/01/17 06:22:00;;;;;;;33.97;25.77;;;-0.50;99.90;;;;;;6064912;23;20957;-75
2021/01/17 06:24:35;;;;;;;30.30;26.70;;;-0.50;99.90;;;;;;6066573;23;20391;-76
2021/01/17 06:27:02;;;;;;;32.67;26.73;;;-0.50;99.90;;;;;;6065177;23;20418;-76
2021/01/17 06:29:39;;;;;;;30.03;26.17;;;-0.60;99.90;;;;;;6064855;23;20418;-75
2021/01/17 06:32:15;;;;;;;40.20;28.67;;;-0.60;99.90;;;;;;6065631;23;20438;-77
2021/01/17 06:34:45;;;;;;;35.83;28.07;;;-0.60;99.90;;;;;;6065877;23;20446;-76
2021/01/17 06:37:12;;;;;;;33.40;28.13;;;-0.60;99.90;;;;;;6066035;23;20414;-77
2021/01/17 06:39:43;;;;;;;36.80;26.97;;;-0.60;99.90;;;;;;6065070;23;20887;-76
2021/01/17 06:42:11;;;;;;;34.23;27.30;;;-0.50;99.90;;;;;;6066945;23;20445;-77
2021/01/17 06:44:38;;;;;;;33.23;28.50;;;-0.60;99.90;;;;;;6067063;23;20464;-76
2021/01/17 06:47:05;;;;;;;32.77;27.53;;;-0.60;99.90;;;;;;6066749;23;20450;-76
2021/01/17 06:49:33;;;;;;;31.27;26.47;;;-0.50;99.90;;;;;;6066062;23;20423;-76
2021/01/17 06:52:04;;;;;;;32.83;28.53;;;-0.50;99.90;;;;;;6066054;23;20435;-76
2021/01/17 06:54:35;;;;;;;35.33;27.67;;;-0.50;99.90;;;;;;6065984;23;20445;-76
2021/01/17 06:57:03;;;;;;;32.07;27.10;;;-0.50;99.90;;;;;;6065853;23;20753;-76
2021/01/17 06:59:31;;;;;;;33.67;27.17;;;-0.50;99.90;;;;;;6065614;23;20644;-76
2021/01/17 07:02:29;;;;;;;32.07;27.63;;;-0.40;99.90;;;;;;6067664;23;20407;-76
2021/01/17 07:05:09;;;;;;;30.87;27.63;;;-0.40;99.90;;;;;;6066715;23;20475;-76
2021/01/17 07:08:18;;;;;;;37.50;29.17;;;-0.40;99.90;;;;;;6066017;23;20407;-77
2021/01/17 07:10:50;;;;;;;37.30;29.90;;;-0.40;99.90;;;;;;6036633;23;20434;-76
2021/01/17 07:13:21;;;;;;;33.70;29.23;;;-0.40;99.90;;;;;;6065919;23;20436;-77
2021/01/17 07:15:50;;;;;;;35.37;28.97;;;-0.40;99.90;;;;;;6067090;23;20434;-76
2021/01/17 07:18:17;;;;;;;38.87;30.53;;;-0.50;99.90;;;;;;6065748;23;20906;-76
2021/01/17 07:20:45;;;;;;;37.90;29.80;;;-0.50;99.90;;;;;;6065137;23;20470;-77
2021/01/17 07:23:14;;;;;;;33.43;28.00;;;-0.50;99.90;;;;;;6065699;23;20383;-78
2021/01/17 07:25:42;;;;;;;34.83;26.83;;;-0.50;99.90;;;;;;6066166;23;20777;-77
2021/01/17 07:28:10;;;;;;;38.90;29.17;;;-0.40;99.90;;;;;;6066841;23;20398;-77
2021/01/17 07:30:45;;;;;;;37.43;29.30;;;-0.40;99.90;;;;;;6067164;23;20395;-77
2021/01/17 07:33:13;;;;;;;32.73;27.97;;;-0.50;99.90;;;;;;6068357;23;20439;-77
2021/01/17 07:35:41;;;;;;;33.93;28.07;;;-0.40;99.90;;;;;;6068288;23;20440;-77
2021/01/17 07:38:14;;;;;;;33.17;27.13;;;-0.40;99.90;;;;;;6066616;23;20415;-77
2021/01/17 07:40:52;;;;;;;33.90;27.43;;;-0.40;99.90;;;;;;6066703;23;20427;-77
2021/01/17 07:43:27;;;;;;;33.10;28.00;;;-0.40;99.90;;;;;;6064195;23;20874;-77
2021/01/17 07:45:57;;;;;;;33.77;28.00;;;-0.40;99.90;;;;;;6066937;23;20797;-77
2021/01/17 07:48:24;;;;;;;31.07;26.37;;;-0.40;99.90;;;;;;6068183;23;20455;-77
2021/01/17 07:50:52;;;;;;;33.63;27.67;;;-0.40;99.90;;;;;;6068117;23;20419;-75
2021/01/17 07:53:52;;;;;;;33.47;28.00;;;-0.40;99.90;;;;;;6065160;23;20395;-75
2021/01/17 07:56:27;;;;;;;35.73;28.87;;;-0.40;99.90;;;;;;5979790;24;20866;-77
2021/01/17 07:59:00;;;;;;;32.57;27.03;;;-0.40;99.90;;;;;;6049546;23;20418;-76
2021/01/17 08:01:47;;;;;;;36.87;29.10;;;-0.30;99.90;;;;;;6067498;23;20434;-76
2021/01/17 08:04:27;;;;;;;35.03;29.17;;;-0.30;99.90;;;;;;6065498;23;20415;-77
2021/01/17 08:06:58;;;;;;;33.07;28.63;;;-0.30;99.90;;;;;;6065514;23;20907;-77
2021/01/17 08:09:50;;;;;;;37.53;28.73;;;-0.20;99.90;;;;;;6064622;23;20407;-77
2021/01/17 08:12:35;;;;;;;36.13;29.47;;;-0.20;99.90;;;;;;6063437;23;20515;-76
2021/01/17 08:15:29;;;;;;;32.53;27.17;;;-0.10;99.90;;;;;;6064071;23;20969;-76
2021/01/17 08:17:55;;;;;;;34.87;27.13;;;-0.10;99.90;;;;;;6063339;23;20422;-77
2021/01/17 08:20:31;;;;;;;35.33;28.40;;;0.00;99.90;;;;;;6065128;23;20415;-77
2021/01/17 08:23:12;;;;;;;36.20;29.87;;;0.00;99.90;;;;;;6065634;23;20856;-79
2021/01/17 08:26:01;;;;;;;33.90;28.23;;;0.10;99.90;;;;;;6065480;23;20446;-76
2021/01/17 08:28:36;;;;;;;37.07;30.87;;;0.10;99.90;;;;;;6065297;23;20485;-76
2021/01/17 08:31:18;;;;;;;38.63;30.97;;;0.10;99.90;;;;;;6067236;23;20413;-76
2021/01/17 08:33:45;;;;;;;38.13;29.80;;;0.20;99.90;;;;;;6066189;23;20537;-76
2021/01/17 08:36:34;;;;;;;35.40;29.60;;;0.30;99.90;;;;;;6064233;23;20442;-76
2021/01/17 08:39:00;;;;;;;34.80;29.70;;;0.30;99.90;;;;;;6064997;23;20942;-76
2021/01/17 08:41:28;;;;;;;35.17;27.07;;;0.40;99.90;;;;;;6065701;23;20416;-75
2021/01/17 08:43:55;;;;;;;32.30;26.80;;;0.50;99.90;;;;;;6067214;23;20427;-76
2021/01/17 08:46:39;;;;;;;30.80;27.33;;;0.60;99.90;;;;;;6065509;23;20423;-76
2021/01/17 08:49:06;;;;;;;31.97;25.73;;;0.70;99.90;;;;;;6064531;23;20406;-77
2021/01/17 08:51:32;;;;;;;33.50;27.60;;;0.80;99.90;;;;;;6063598;23;20466;-75
2021/01/17 08:54:25;;;;;;;29.30;26.00;;;0.80;99.90;;;;;;6067196;23;20458;-75
2021/01/17 08:56:53;;;;;;;29.70;25.87;;;0.90;99.90;;;;;;6061943;23;20407;-75
2021/01/17 08:59:33;;;;;;;28.73;25.73;;;0.90;99.90;;;;;;6064029;23;20415;-76
2021/01/17 09:02:00;;;;;;;31.37;27.07;;;0.90;99.90;;;;;;6065866;23;20435;-75
2021/01/17 09:04:28;;;;;;;30.13;26.77;;;1.00;99.90;;;;;;6065433;23;20457;-76
2021/01/17 09:06:55;;;;;;;28.50;25.27;;;1.00;99.90;;;;;;6064435;23;20977;-76
2021/01/17 09:09:22;;;;;;;29.23;26.13;;;1.00;99.90;;;;;;6064050;23;20484;-76
2021/01/17 09:11:49;;;;;;;28.43;25.37;;;1.00;99.90;;;;;;6065968;23;20938;-75
2021/01/17 09:14:24;;;;;;;28.60;25.70;;;1.10;99.90;;;;;;6067356;23;20930;-77
2021/01/17 09:16:53;;;;;;;27.73;24.80;;;1.10;99.90;;;;;;6066765;23;20383;-76
2021/01/17 09:19:20;;;;;;;27.00;24.20;;;1.20;99.90;;;;;;6064913;23;20478;-75
2021/01/17 09:21:50;;;;;;;27.27;24.27;;;1.20;99.90;;;;;;6065024;23;20456;-75
2021/01/17 09:24:18;;;;;;;29.23;24.87;;;1.30;99.90;;;;;;6067486;23;20863;-79
2021/01/17 09:26:46;;;;;;;31.93;26.97;;;1.40;99.90;;;;;;6066223;23;20748;-77
2021/01/17 09:29:25;;;;;;;28.60;25.47;;;1.40;99.90;;;;;;6065328;23;20937;-77
2021/01/17 09:31:53;;;;;;;27.00;24.10;;;1.50;99.90;;;;;;6065587;23;20444;-77
2021/01/17 09:34:22;;;;;;;28.90;25.90;;;1.50;99.90;;;;;;6067240;23;20821;-77
2021/01/17 09:36:51;;;;;;;27.77;24.97;;;1.60;99.90;;;;;;6064410;23;20403;-79
2021/01/17 09:39:39;;;;;;;27.43;24.37;;;1.60;99.90;;;;;;6065631;23;20419;-80
2021/01/17 09:42:10;;;;;;;30.83;27.10;;;1.70;99.90;;;;;;6068097;23;20415;-79
2021/01/17 09:44:41;;;;;;;28.50;24.87;;;1.70;99.90;;;;;;6067343;23;20407;-79
2021/01/17 09:47:15;;;;;;;27.80;24.90;;;1.70;99.90;;;;;;6066788;23;20425;-75
2021/01/17 09:49:41;;;;;;;28.50;25.23;;;1.70;99.90;;;;;;6065106;23;20775;-77
2021/01/17 09:52:12;;;;;;;27.70;24.47;;;1.70;99.90;;;;;;6059362;23;20439;-74
2021/01/17 09:54:38;;;;;;;28.27;25.03;;;1.70;99.90;;;;;;6066103;23;20738;-75
2021/01/17 09:57:16;;;;;;;27.97;23.73;;;1.70;99.90;;;;;;6065126;23;20419;-74
2021/01/17 09:59:44;;;;;;;26.60;23.73;;;1.70;99.90;;;;;;6065808;23;20415;-74
2021/01/17 10:02:10;;;;;;;26.20;23.50;;;1.70;99.90;;;;;;6065886;23;20450;-75
2021/01/17 10:04:37;;;;;;;25.13;22.73;;;1.90;99.90;;;;;;6065158;23;20455;-75
2021/01/17 10:07:03;;;;;;;25.23;22.60;;;2.00;99.90;;;;;;6066226;23;20426;-75
2021/01/17 10:09:30;;;;;;;26.53;23.73;;;2.10;99.90;;;;;;6065337;23;20419;-75
2021/01/17 10:11:59;;;;;;;25.13;22.47;;;2.10;99.90;;;;;;6064961;23;20495;-75
2021/01/17 10:14:29;;;;;;;24.50;21.93;;;2.10;99.90;;;;;;6064714;23;20502;-75
2021/01/17 10:16:59;;;;;;;26.03;23.07;;;2.20;99.90;;;;;;6066149;23;20381;-75
2021/01/17 10:19:28;;;;;;;23.23;20.93;;;2.30;99.90;;;;;;6065095;23;20398;-75
2021/01/17 10:21:56;;;;;;;23.97;21.43;;;2.40;99.90;;;;;;6066116;23;20771;-76
2021/01/17 10:24:23;;;;;;;23.47;21.17;;;2.40;99.90;;;;;;6066641;23;20392;-75
2021/01/17 10:26:52;;;;;;;22.83;20.57;;;2.30;99.90;;;;;;6064299;23;20450;-76
2021/01/17 10:29:23;;;;;;;21.63;19.70;;;2.40;99.90;;;;;;6062951;23;20430;-76
2021/01/17 10:31:53;;;;;;;20.93;18.93;;;2.50;99.90;;;;;;6064372;23;20454;-76
2021/01/17 10:34:29;;;;;;;19.83;18.00;;;2.50;99.90;;;;;;6065678;23;20456;-76
2021/01/17 10:37:00;;;;;;;22.10;19.83;;;2.60;99.90;;;;;;6066721;23;20382;-78
2021/01/17 10:39:27;;;;;;;22.17;19.47;;;2.70;99.90;;;;;;6064423;23;20418;-78
2021/01/17 10:42:03;;;;;;;20.17;18.27;;;2.80;99.90;;;;;;6066312;23;20737;-79
2021/01/17 10:44:31;;;;;;;21.63;19.63;;;2.90;99.90;;;;;;6064628;23;20423;-78
2021/01/17 10:47:03;;;;;;;20.87;18.87;;;2.90;99.90;;;;;;6064877;23;20419;-78
2021/01/17 10:49:34;;;;;;;19.80;18.07;;;2.80;99.90;;;;;;6064340;23;20440;-77
2021/01/17 10:52:11;;;;;;;19.67;17.77;;;2.90;99.90;;;;;;6064673;23;20489;-78
2021/01/17 10:54:42;;;;;;;19.83;18.03;;;2.90;99.90;;;;;;6065171;23;20430;-78
2021/01/17 10:57:09;;;;;;;19.30;17.47;;;2.90;99.90;;;;;;6065529;23;21280;-77
2021/01/17 10:59:36;;;;;;;20.57;18.00;;;2.90;99.90;;;;;;6066734;23;20876;-77
2021/01/17 11:02:03;;;;;;;19.07;17.30;;;2.90;99.90;;;;;;6066642;23;20411;-76
2021/01/17 11:04:39;;;;;;;18.37;16.87;;;3.00;99.90;;;;;;6065267;23;20419;-77
2021/01/17 11:07:07;;;;;;;18.87;17.13;;;3.00;99.90;;;;;;6067162;23;20444;-76
2021/01/17 11:09:34;;;;;;;18.73;17.03;;;3.00;99.90;;;;;;6066766;23;20454;-75
2021/01/17 11:12:01;;;;;;;17.33;15.83;;;3.10;99.90;;;;;;6066375;23;20471;-78
2021/01/17 11:14:30;;;;;;;19.50;17.67;;;3.10;99.90;;;;;;6065307;23;20534;-78
2021/01/17 11:16:57;;;;;;;17.70;16.30;;;3.20;99.90;;;;;;6066287;23;20401;-78
2021/01/17 11:19:35;;;;;;;17.83;16.33;;;3.30;99.90;;;;;;6064818;23;20479;-78
2021/01/17 11:22:03;;;;;;;17.43;15.93;;;3.30;99.90;;;;;;6066150;23;20445;-78
2021/01/17 11:24:34;;;;;;;17.80;16.20;;;3.40;99.90;;;;;;6064855;23;20422;-77
2021/01/17 11:27:11;;;;;;;16.20;14.83;;;3.30;99.90;;;;;;6066733;23;20398;-76
2021/01/17 11:29:38;;;;;;;16.50;15.20;;;3.30;99.90;;;;;;6065890;23;20894;-76
2021/01/17 11:32:05;;;;;;;17.00;15.60;;;3.30;99.90;;;;;;6065789;23;20407;-75
2021/01/17 11:34:36;;;;;;;16.23;14.93;;;3.30;99.90;;;;;;6063023;23;20443;-75
2021/01/17 11:37:04;;;;;;;15.53;14.33;;;3.30;99.90;;;;;;6064469;23;20418;-76
2021/01/17 11:39:30;;;;;;;15.27;14.03;;;3.40;99.90;;;;;;6062600;23;20483;-75
2021/01/17 11:41:57;;;;;;;15.70;14.30;;;3.40;99.90;;;;;;6062816;23;20431;-75
2021/01/17 11:44:25;;;;;;;14.77;13.60;;;3.40;99.90;;;;;;6064741;23;20402;-74
2021/01/17 11:46:52;;;;;;;14.57;13.47;;;3.40;99.90;;;;;;6063313;23;20913;-76
2021/01/17 11:49:24;;;;;;;18.50;16.83;;;3.50;99.90;;;;;;6066442;23;20391;-76
2021/01/17 11:51:51;;;;;;;16.40;15.07;;;3.50;99.90;;;;;;6065123;23;20449;-76
2021/01/17 11:54:20;;;;;;;17.33;15.93;;;3.60;99.90;;;;;;6066481;23;20434;-78
2021/01/17 11:56:48;;;;;;;17.30;15.80;;;3.50;99.90;;;;;;6066991;23;20471;-77
2021/01/17 11:59:27;;;;;;;21.37;19.23;;;3.40;99.90;;;;;;6064865;23;20423;-77
2021/01/17 12:01:54;;;;;;;17.30;15.70;;;3.40;99.90;;;;;;6060789;23;20466;-77
2021/01/17 12:04:25;;;;;;;16.27;14.97;;;3.40;99.90;;;;;;6064034;23;20777;-77
2021/01/17 12:07:05;;;;;;;15.83;14.50;;;3.40;99.90;;;;;;6066533;23;20382;-77
2021/01/17 12:09:34;;;;;;;15.00;13.80;;;3.40;99.90;;;;;;6066284;23;20170;-77
2021/01/17 12:12:11;;;;;;;15.23;14.03;;;3.40;99.90;;;;;;6064806;23;20784;-77
2021/01/17 12:14:38;;;;;;;14.93;13.70;;;3.40;99.90;;;;;;6064821;23;20434;-77
2021/01/17 12:17:06;;;;;;;15.47;14.10;;;3.30;99.90;;;;;;6067488;23;20444;-77
2021/01/17 12:19:34;;;;;;;15.10;13.97;;;3.20;99.90;;;;;;6066413;23;20418;-77
2021/01/17 12:22:02;;;;;;;15.67;14.40;;;3.20;99.90;;;;;;6066713;23;20993;-77
2021/01/17 12:24:29;;;;;;;15.67;14.37;;;3.20;99.90;;;;;;6066593;23;20857;-77
2021/01/17 12:26:56;;;;;;;16.10;14.80;;;3.20;99.90;;;;;;6066557;23;20435;-77
2021/01/17 12:29:23;;;;;;;14.97;13.70;;;3.20;99.90;;;;;;6065857;23;20427;-78
2021/01/17 12:31:51;;;;;;;15.43;14.23;;;3.20;99.90;;;;;;6066323;23;20443;-77
2021/01/17 12:34:18;;;;;;;16.23;14.93;;;3.30;99.90;;;;;;6066423;23;20418;-77
2021/01/17 12:36:48;;;;;;;15.80;14.57;;;3.20;99.90;;;;;;6066535;23;20428;-78
2021/01/17 12:39:47;;;;;;;15.90;14.60;;;3.20;99.90;;;;;;6067050;23;20432;-78
2021/01/17 12:42:54;;;;;;;14.57;13.47;;;3.20;99.90;;;;;;6062920;23;21069;-77
2021/01/17 12:54:58;;;;;;;14.13;13.03;;;3.10;99.90;;;;;;6069466;23;20934;-77